Time;durP1;ratioP1;P1;durP2;ratioP2;P2;SDS_P1;SDS_P2;PMS_P1;PMS_P2;Temp;Humidity;BMP_temperature;BMP_pressure;BME280_temperature;BME280_humidity;BME280_pressure;Samples;Min_cycle;Max_cycle;Signal;HPM_P1;HPM_P2
2021/10/23 00:00:34;;;;;;;;;;;12.50;99.90;;;;;;4997240;28;936;-47
2021/10/23 00:03:00;;;;;;;;;;;12.50;99.90;;;;;;4997087;28;825;-47
2021/10/23 00:05:26;;;;;;;;;;;12.50;99.90;;;;;;4997202;28;866;-48
2021/10/23 00:07:53;;;;;;;;;;;12.50;99.90;;;;;;4997288;28;1898;-47
2021/10/23 00:10:20;;;;;;;;;;;12.50;99.90;;;;;;4989946;28;827;-47
2021/10/23 00:12:47;;;;;;;;;;;12.50;99.90;;;;;;4977267;28;1396;-48
2021/10/23 00:15:13;;;;;;;;;;;12.50;99.90;;;;;;4977625;28;1049;-48
2021/10/23 00:17:39;;;;;;;;;;;12.50;99.90;;;;;;4977488;28;842;-47
2021/10/23 00:20:05;;;;;;;;;;;12.50;99.90;;;;;;4977314;28;827;-47
2021/10/23 00:22:32;;;;;;;;;;;12.50;99.90;;;;;;4977803;28;786;-47
2021/10/23 00:25:00;;;;;;;;;;;12.50;99.90;;;;;;4977695;28;903;-47
2021/10/23 00:27:26;;;;;;;;;;;12.50;99.90;;;;;;4974947;28;1907;-48
2021/10/23 00:29:53;;;;;;;;;;;12.50;99.90;;;;;;4958661;28;909;-48
2021/10/23 00:32:20;;;;;;;;;;;12.50;99.90;;;;;;4958013;28;810;-47
2021/10/23 00:34:47;;;;;;;;;;;12.50;99.90;;;;;;4958113;28;746;-47
2021/10/23 00:37:13;;;;;;;;;;;12.50;99.90;;;;;;4958441;28;1033;-47
2021/10/23 00:39:39;;;;;;;;;;;12.50;99.90;;;;;;4960120;28;835;-47
2021/10/23 00:42:05;;;;;;;;;;;12.50;99.90;;;;;;4977418;28;830;-48
2021/10/23 00:44:35;;;;;;;;;;;12.50;99.90;;;;;;4992407;28;1181;-47
2021/10/23 00:47:08;;;;;;;;;;;12.50;99.90;;;;;;4996795;28;1915;-47
2021/10/23 00:49:35;;;;;;;;;;;12.40;99.90;;;;;;4996866;28;857;-47
2021/10/23 00:52:03;;;;;;;;;;;12.40;99.90;;;;;;4996935;28;842;-47
2021/10/23 00:54:29;;;;;;;;;;;12.40;99.90;;;;;;4997070;28;1030;-47
2021/10/23 00:56:57;;;;;;;;;;;12.40;99.90;;;;;;4996655;28;853;-47
2021/10/23 00:59:25;;;;;;;;;;;12.40;99.90;;;;;;4996658;28;843;-47
2021/10/23 01:01:52;;;;;;;;;;;12.40;99.90;;;;;;4996870;28;821;-47
2021/10/23 01:04:21;;;;;;;;;;;12.40;99.90;;;;;;4996613;28;1062;-47
2021/10/23 01:06:48;;;;;;;;;;;12.40;99.90;;;;;;4995500;28;1911;-47
2021/10/23 01:09:14;;;;;;;;;;;12.40;99.90;;;;;;4995227;28;1156;-47
2021/10/23 01:11:41;;;;;;;;;;;12.40;99.90;;;;;;4977974;28;1164;-47
2021/10/23 01:14:14;;;;;;;;;;;12.40;99.90;;;;;;4977282;28;759;-47
2021/10/23 01:16:41;;;;;;;;;;;12.40;99.90;;;;;;4977195;28;924;-47
2021/10/23 01:19:07;;;;;;;;;;;12.40;99.90;;;;;;4976779;28;886;-47
2021/10/23 01:21:33;;;;;;;;;;;12.40;99.90;;;;;;4975020;28;1336;-47
2021/10/23 01:23:59;;;;;;;;;;;12.40;99.90;;;;;;4977913;28;1205;-47
2021/10/23 01:26:26;;;;;;;;;;;12.30;99.90;;;;;;4980108;28;1907;-47
2021/10/23 01:28:54;;;;;;;;;;;12.30;99.90;;;;;;4996367;28;825;-47
2021/10/23 01:31:21;;;;;;;;;;;12.30;99.90;;;;;;4996785;28;750;-47
2021/10/23 01:33:47;;;;;;;;;;;12.30;99.90;;;;;;4996762;28;1376;-47
2021/10/23 01:36:16;;;;;;;;;;;12.30;99.90;;;;;;4980139;28;995;-47
2021/10/23 01:38:42;;;;;;;;;;;12.30;99.90;;;;;;4980886;28;881;-47
2021/10/23 01:41:08;;;;;;;;;;;12.30;99.90;;;;;;4993244;28;959;-47
2021/10/23 01:43:34;;;;;;;;;;;12.30;99.90;;;;;;4999715;28;870;-47
2021/10/23 01:46:00;;;;;;;;;;;12.30;99.90;;;;;;4999702;28;1906;-47
2021/10/23 01:48:28;;;;;;;;;;;12.30;99.90;;;;;;4999514;28;809;-47
2021/10/23 01:50:56;;;;;;;;;;;12.30;99.90;;;;;;5000098;28;862;-47
2021/10/23 01:53:23;;;;;;;;;;;12.20;99.90;;;;;;5001144;28;1259;-47
2021/10/23 01:55:51;;;;;;;;;;;12.20;99.90;;;;;;4980287;28;898;-47
2021/10/23 01:58:18;;;;;;;;;;;12.20;99.90;;;;;;4980415;28;798;-47
2021/10/23 02:00:45;;;;;;;;;;;12.20;99.90;;;;;;4998215;28;1161;-47
2021/10/23 02:03:10;;;;;;;;;;;12.20;99.90;;;;;;4997785;28;851;-47
2021/10/23 02:05:36;;;;;;;;;;;12.20;99.90;;;;;;4997887;28;888;-47
2021/10/23 02:08:02;;;;;;;;;;;12.20;99.90;;;;;;4997659;28;1902;-47
2021/10/23 02:10:32;;;;;;;;;;;12.20;99.90;;;;;;4989093;28;856;-47
2021/10/23 02:12:58;;;;;;;;;;;12.20;99.90;;;;;;4962188;28;1019;-47
2021/10/23 02:15:25;;;;;;;;;;;12.20;99.90;;;;;;4978174;28;837;-47
2021/10/23 02:17:52;;;;;;;;;;;12.10;99.90;;;;;;4978344;28;783;-47
2021/10/23 02:20:18;;;;;;;;;;;12.20;99.90;;;;;;4978443;28;762;-47
2021/10/23 02:22:44;;;;;;;;;;;12.20;99.90;;;;;;4978080;28;909;-47
2021/10/23 02:25:10;;;;;;;;;;;12.20;99.90;;;;;;4978009;28;953;-47
2021/10/23 02:27:36;;;;;;;;;;;12.20;99.90;;;;;;4977457;28;1906;-47
2021/10/23 02:30:05;;;;;;;;;;;12.10;99.90;;;;;;5007183;28;1205;-47
2021/10/23 02:32:32;;;;;;;;;;;12.10;99.90;;;;;;4998862;28;1417;-47
2021/10/23 02:35:00;;;;;;;;;;;12.10;99.90;;;;;;4977803;28;801;-47
2021/10/23 02:37:27;;;;;;;;;;;12.10;99.90;;;;;;4974314;28;1017;-47
2021/10/23 02:39:54;;;;;;;;;;;12.10;99.90;;;;;;4963991;28;839;-47
2021/10/23 02:42:20;;;;;;;;;;;12.10;99.90;;;;;;4978882;28;778;-47
2021/10/23 02:44:46;;;;;;;;;;;12.10;99.90;;;;;;4979414;28;739;-47
2021/10/23 02:47:12;;;;;;;;;;;12.10;99.90;;;;;;4979672;28;1961;-47
2021/10/23 02:49:38;;;;;;;;;;;12.10;99.90;;;;;;4979004;28;798;-47
2021/10/23 02:52:04;;;;;;;;;;;12.10;99.90;;;;;;4979568;28;867;-47
2021/10/23 02:54:30;;;;;;;;;;;12.10;99.90;;;;;;4979058;28;835;-47
2021/10/23 02:56:58;;;;;;;;;;;12.10;99.90;;;;;;4945560;28;1068;-47
2021/10/23 02:59:23;;;;;;;;;;;12.10;99.90;;;;;;4979173;28;842;-47
2021/10/23 03:01:50;;;;;;;;;;;12.10;99.90;;;;;;4979160;28;909;-47
2021/10/23 03:04:16;;;;;;;;;;;12.10;99.90;;;;;;4978760;28;843;-47
2021/10/23 03:06:44;;;;;;;;;;;12.10;99.90;;;;;;4979479;28;1957;-47
2021/10/23 03:09:11;;;;;;;;;;;12.10;99.90;;;;;;4979032;28;854;-47
2021/10/23 03:11:37;;;;;;;;;;;12.10;99.90;;;;;;4978749;28;1236;-47
2021/10/23 03:14:05;;;;;;;;;;;12.10;99.90;;;;;;4979164;28;860;-47
2021/10/23 03:16:32;;;;;;;;;;;12.10;99.90;;;;;;4979200;28;1001;-47
2021/10/23 03:18:59;;;;;;;;;;;12.10;99.90;;;;;;4978704;28;793;-47
2021/10/23 03:21:26;;;;;;;;;;;12.10;99.90;;;;;;4977680;28;1044;-47
2021/10/23 03:23:52;;;;;;;;;;;12.10;99.90;;;;;;4978777;28;759;-47
2021/10/23 03:26:18;;;;;;;;;;;12.20;99.90;;;;;;4978888;28;1911;-47
2021/10/23 03:28:44;;;;;;;;;;;12.20;99.90;;;;;;4982278;28;1212;-48
2021/10/23 03:31:10;;;;;;;;;;;12.10;99.90;;;;;;4998075;28;832;-47
2021/10/23 03:33:35;;;;;;;;;;;12.20;99.90;;;;;;4997890;28;998;-47
2021/10/23 03:36:03;;;;;;;;;;;12.10;99.90;;;;;;4997746;28;936;-47
2021/10/23 03:38:30;;;;;;;;;;;12.20;99.90;;;;;;4997896;28;837;-47
2021/10/23 03:40:57;;;;;;;;;;;12.10;99.90;;;;;;4971665;28;916;-47
2021/10/23 03:43:23;;;;;;;;;;;12.10;99.90;;;;;;4957092;29;923;-47
2021/10/23 03:45:50;;;;;;;;;;;12.10;99.90;;;;;;4957224;29;1447;-47
2021/10/23 03:48:16;;;;;;;;;;;12.10;99.90;;;;;;4957188;29;1907;-47
2021/10/23 03:50:42;;;;;;;;;;;12.10;99.90;;;;;;4957597;28;862;-47
2021/10/23 03:53:07;;;;;;;;;;;12.10;99.90;;;;;;4925482;29;1118;-47
2021/10/23 03:55:34;;;;;;;;;;;12.10;99.90;;;;;;4956597;28;912;-47
2021/10/23 03:58:00;;;;;;;;;;;12.10;99.90;;;;;;4956957;29;802;-47
2021/10/23 04:00:27;;;;;;;;;;;12.10;99.90;;;;;;4973326;28;854;-47
2021/10/23 04:02:52;;;;;;;;;;;12.10;99.90;;;;;;4956462;28;1116;-47
2021/10/23 04:05:18;;;;;;;;;;;12.10;99.90;;;;;;4957373;28;938;-47
2021/10/23 04:07:44;;;;;;;;;;;12.10;99.90;;;;;;4957678;29;1910;-47
2021/10/23 04:10:10;;;;;;;;;;;12.10;99.90;;;;;;4957875;28;889;-47
2021/10/23 04:12:37;;;;;;;;;;;12.20;99.90;;;;;;4957880;29;1092;-47
2021/10/23 04:15:04;;;;;;;;;;;12.10;99.90;;;;;;4958297;28;1111;-47
2021/10/23 04:17:31;;;;;;;;;;;12.20;99.90;;;;;;4958718;28;1181;-47
2021/10/23 04:19:57;;;;;;;;;;;12.10;99.90;;;;;;4956941;29;944;-47
2021/10/23 04:22:23;;;;;;;;;;;12.20;99.90;;;;;;4957485;29;879;-47
2021/10/23 04:24:51;;;;;;;;;;;12.10;99.90;;;;;;4957087;29;902;-47
2021/10/23 04:27:17;;;;;;;;;;;12.10;99.90;;;;;;4956742;29;1906;-47
2021/10/23 04:29:43;;;;;;;;;;;12.10;99.90;;;;;;4972476;28;1318;-47
2021/10/23 04:32:09;;;;;;;;;;;12.10;99.90;;;;;;4975824;28;1027;-47
2021/10/23 04:34:36;;;;;;;;;;;12.10;99.90;;;;;;4975856;28;913;-47
2021/10/23 04:37:03;;;;;;;;;;;12.20;99.90;;;;;;4975717;28;1042;-47
2021/10/23 04:39:31;;;;;;;;;;;12.20;99.90;;;;;;4974964;28;1017;-47
2021/10/23 04:41:58;;;;;;;;;;;12.20;99.90;;;;;;4956555;28;909;-47
2021/10/23 04:44:24;;;;;;;;;;;12.10;99.90;;;;;;4956742;28;888;-47
2021/10/23 04:46:50;;;;;;;;;;;12.10;99.90;;;;;;4956679;29;1965;-47
2021/10/23 04:49:16;;;;;;;;;;;12.10;99.90;;;;;;4956136;29;903;-47
2021/10/23 04:51:42;;;;;;;;;;;12.10;99.90;;;;;;4957811;29;969;-47
2021/10/23 04:54:10;;;;;;;;;;;12.10;99.90;;;;;;4958214;28;878;-47
2021/10/23 04:56:37;;;;;;;;;;;12.10;99.90;;;;;;4958532;28;983;-47
2021/10/23 04:59:04;;;;;;;;;;;12.10;99.90;;;;;;4958503;28;1009;-47
2021/10/23 05:01:30;;;;;;;;;;;12.10;99.90;;;;;;4957659;28;1218;-47
2021/10/23 05:03:56;;;;;;;;;;;12.10;99.90;;;;;;4957885;28;742;-47
2021/10/23 05:06:22;;;;;;;;;;;12.10;99.90;;;;;;4959648;28;889;-47
2021/10/23 05:08:48;;;;;;;;;;;12.10;99.90;;;;;;4961608;28;1907;-47
2021/10/23 05:11:14;;;;;;;;;;;12.10;99.90;;;;;;4975888;28;1174;-47
2021/10/23 05:13:40;;;;;;;;;;;12.10;99.90;;;;;;4981009;28;859;-47
2021/10/23 05:16:06;;;;;;;;;;;12.10;99.90;;;;;;4981122;28;896;-47
2021/10/23 05:18:32;;;;;;;;;;;12.10;99.90;;;;;;4980704;28;786;-47
2021/10/23 05:20:58;;;;;;;;;;;12.10;99.90;;;;;;4980992;28;1163;-47
2021/10/23 05:23:24;;;;;;;;;;;12.10;99.90;;;;;;4980749;28;888;-47
2021/10/23 05:25:51;;;;;;;;;;;12.10;99.90;;;;;;4980983;28;842;-47
2021/10/23 05:28:18;;;;;;;;;;;12.10;99.90;;;;;;4981134;28;1906;-47
2021/10/23 05:30:45;;;;;;;;;;;12.10;99.90;;;;;;5000040;28;872;-47
2021/10/23 05:33:11;;;;;;;;;;;12.10;99.90;;;;;;4999804;28;941;-47
2021/10/23 05:35:37;;;;;;;;;;;12.10;99.90;;;;;;4999972;28;805;-47
2021/10/23 05:38:03;;;;;;;;;;;12.10;99.90;;;;;;4999962;28;885;-47
2021/10/23 05:40:29;;;;;;;;;;;12.10;99.90;;;;;;4990309;28;829;-47
2021/10/23 05:42:55;;;;;;;;;;;12.10;99.90;;;;;;4980473;28;852;-47
2021/10/23 05:45:22;;;;;;;;;;;12.10;99.90;;;;;;4980380;28;865;-47
2021/10/23 05:47:49;;;;;;;;;;;12.10;99.90;;;;;;4980341;28;1966;-47
2021/10/23 05:50:15;;;;;;;;;;;12.10;99.90;;;;;;4980832;28;763;-47
2021/10/23 05:52:41;;;;;;;;;;;12.10;99.90;;;;;;4979130;28;887;-47
2021/10/23 05:55:07;;;;;;;;;;;12.10;99.90;;;;;;4980172;28;880;-47
2021/10/23 05:57:33;;;;;;;;;;;12.10;99.90;;;;;;4979993;28;825;-47
2021/10/23 06:00:04;;;;;;;;;;;12.10;99.90;;;;;;4980681;28;747;-47
2021/10/23 06:02:32;;;;;;;;;;;12.00;99.90;;;;;;4980547;28;1116;-47
2021/10/23 06:04:59;;;;;;;;;;;12.10;99.90;;;;;;4980243;28;837;-47
2021/10/23 06:07:26;;;;;;;;;;;12.10;99.90;;;;;;4979910;28;1965;-47
2021/10/23 06:09:55;;;;;;;;;;;12.10;99.90;;;;;;4980013;28;861;-47
2021/10/23 06:12:24;;;;;;;;;;;12.10;99.90;;;;;;4979484;28;1444;-47
2021/10/23 06:14:52;;;;;;;;;;;12.10;99.90;;;;;;4980051;28;900;-47
2021/10/23 06:17:20;;;;;;;;;;;12.10;99.90;;;;;;4978728;28;790;-47
2021/10/23 06:19:46;;;;;;;;;;;12.10;99.90;;;;;;4979625;28;862;-47
2021/10/23 06:22:12;;;;;;;;;;;12.10;99.90;;;;;;4978951;28;1024;-47
2021/10/23 06:24:39;;;;;;;;;;;12.10;99.90;;;;;;4980049;28;809;-47
2021/10/23 06:27:05;;;;;;;;;;;12.10;99.90;;;;;;4979265;28;1911;-47
2021/10/23 06:29:32;;;;;;;;;;;12.20;99.90;;;;;;4989662;28;1205;-47
2021/10/23 06:31:58;;;;;;;;;;;12.20;99.90;;;;;;4997748;28;1362;-47
2021/10/23 06:34:26;;;;;;;;;;;12.30;99.90;;;;;;4962318;28;1417;-47
2021/10/23 06:36:53;;;;;;;;;;;12.50;99.90;;;;;;4960377;28;762;-47
2021/10/23 06:39:21;;;;;;;;;;;12.70;99.90;;;;;;4960024;28;850;-47
2021/10/23 06:41:48;;;;;;;;;;;12.80;99.90;;;;;;4979302;28;898;-47
2021/10/23 06:44:14;;;;;;;;;;;13.00;99.90;;;;;;4979169;28;814;-47
2021/10/23 06:46:40;;;;;;;;;;;13.20;99.90;;;;;;4979377;28;1898;-47
2021/10/23 06:49:07;;;;;;;;;;;13.30;99.90;;;;;;4979536;28;981;-47
2021/10/23 06:51:33;;;;;;;;;;;13.50;99.90;;;;;;4979266;28;1120;-47
2021/10/23 06:54:00;;;;;;;;;;;13.60;99.90;;;;;;4979283;28;808;-47
2021/10/23 06:56:27;;;;;;;;;;;13.70;99.90;;;;;;4979274;28;801;-47
2021/10/23 06:58:54;;;;;;;;;;;13.80;99.90;;;;;;4978114;28;1080;-47
2021/10/23 07:01:20;;;;;;;;;;;13.90;99.90;;;;;;4978893;28;858;-47
2021/10/23 07:03:46;;;;;;;;;;;14.00;99.90;;;;;;4976783;28;1399;-47
2021/10/23 07:06:12;;;;;;;;;;;14.00;99.90;;;;;;4980170;28;971;-47
2021/10/23 07:08:38;;;;;;;;;;;14.10;99.90;;;;;;4979007;28;1915;-47
2021/10/23 07:11:05;;;;;;;;;;;14.10;99.90;;;;;;4981639;28;1153;-47
2021/10/23 07:13:31;;;;;;;;;;;14.20;99.90;;;;;;4978651;28;845;-47
2021/10/23 07:15:58;;;;;;;;;;;14.20;99.90;;;;;;4978841;28;1038;-47
2021/10/23 07:18:25;;;;;;;;;;;14.30;99.90;;;;;;4978778;28;996;-47
2021/10/23 07:20:54;;;;;;;;;;;14.30;99.90;;;;;;4976503;28;1368;-47
2021/10/23 07:23:21;;;;;;;;;;;14.30;99.90;;;;;;4994384;28;1294;-47
2021/10/23 07:25:47;;;;;;;;;;;14.40;99.90;;;;;;4983661;28;1259;-47
2021/10/23 07:28:14;;;;;;;;;;;14.30;99.90;;;;;;4996607;28;1915;-47
2021/10/23 07:30:40;;;;;;;;;;;14.40;99.90;;;;;;4997082;28;830;-47
2021/10/23 07:33:06;;;;;;;;;;;14.40;99.90;;;;;;4997931;28;821;-47
2021/10/23 07:35:32;;;;;;;;;;;14.40;99.90;;;;;;4998183;28;899;-48
2021/10/23 07:38:00;;;;;;;;;;;14.30;99.90;;;;;;4992514;28;1157;-47
2021/10/23 07:40:28;;;;;;;;;;;14.30;99.90;;;;;;4978051;28;987;-47
2021/10/23 07:42:55;;;;;;;;;;;14.30;99.90;;;;;;4978395;28;1332;-47
2021/10/23 07:45:22;;;;;;;;;;;14.30;99.90;;;;;;4978107;28;735;-47
2021/10/23 07:47:48;;;;;;;;;;;14.30;99.90;;;;;;4993466;28;1930;-47
2021/10/23 07:50:14;;;;;;;;;;;14.20;99.90;;;;;;4978055;28;852;-47
2021/10/23 07:52:40;;;;;;;;;;;14.20;99.90;;;;;;4978266;28;774;-47
2021/10/23 07:55:10;;;;;;;;;;;14.20;99.90;;;;;;4977021;28;1251;-47
2021/10/23 07:57:36;;;;;;;;;;;14.20;99.90;;;;;;4978053;28;873;-47
2021/10/23 08:00:04;;;;;;;;;;;14.20;99.90;;;;;;4977867;28;751;-47
2021/10/23 08:02:30;;;;;;;;;;;14.10;99.90;;;;;;4978321;28;845;-47
2021/10/23 08:04:57;;;;;;;;;;;14.10;99.90;;;;;;4977812;28;877;-47
2021/10/23 08:07:25;;;;;;;;;;;14.10;99.90;;;;;;4977676;28;1884;-47
2021/10/23 08:09:51;;;;;;;;;;;14.10;99.90;;;;;;4975956;28;936;-47
2021/10/23 08:12:17;;;;;;;;;;;14.10;99.90;;;;;;4977837;28;1034;-47
2021/10/23 08:14:43;;;;;;;;;;;14.70;99.90;;;;;;4984509;28;1161;-47
2021/10/23 08:17:09;;;;;;;;;;;15.10;99.90;;;;;;4997322;28;866;-47
2021/10/23 08:19:35;;;;;;;;;;;15.20;99.90;;;;;;4996748;28;1435;-47
2021/10/23 08:22:01;;;;;;;;;;;14.70;99.90;;;;;;4997693;28;874;-47
2021/10/23 08:24:30;;;;;;;;;;;14.40;99.90;;;;;;4998076;28;945;-47
2021/10/23 08:26:57;;;;;;;;;;;14.20;99.90;;;;;;4995946;28;1922;-47
2021/10/23 08:29:24;;;;;;;;;;;14.10;99.90;;;;;;4977439;28;1405;-47
2021/10/23 08:31:50;;;;;;;;;;;14.00;99.90;;;;;;4958454;28;874;-47
2021/10/23 08:34:16;;;;;;;;;;;14.00;99.90;;;;;;4958274;28;794;-47
2021/10/23 08:36:42;;;;;;;;;;;13.90;99.90;;;;;;4958409;28;857;-47
2021/10/23 08:39:08;;;;;;;;;;;13.90;99.90;;;;;;4958095;28;1032;-47
2021/10/23 08:41:34;;;;;;;;;;;13.90;99.90;;;;;;4975072;28;854;-47
2021/10/23 08:44:02;;;;;;;;;;;13.90;99.90;;;;;;4977455;28;885;-47
2021/10/23 08:46:32;;;;;;;;;;;13.90;99.90;;;;;;4976762;28;826;-47
2021/10/23 08:49:00;;;;;;;;;;;13.90;99.90;;;;;;4976669;28;1903;-47
2021/10/23 08:51:29;;;;;;;;;;;13.90;99.90;;;;;;4977305;28;785;-47
2021/10/23 08:53:57;;;;;;;;;;;14.00;99.90;;;;;;4977509;28;783;-47
2021/10/23 08:56:23;;;;;;;;;;;14.10;99.90;;;;;;4977667;28;916;-47
2021/10/23 08:58:49;;;;;;;;;;;14.10;99.90;;;;;;4977102;28;842;-47
2021/10/23 09:01:15;;;;;;;;;;;14.20;99.90;;;;;;4977810;28;956;-47
2021/10/23 09:03:42;;;;;;;;;;;14.20;99.90;;;;;;4977102;28;832;-47
2021/10/23 09:06:15;;;;;;;;;;;14.20;99.90;;;;;;4977132;28;947;-47
2021/10/23 09:09:00;;;;;;;;;;;14.20;99.90;;;;;;4977596;28;1898;-47
2021/10/23 09:11:28;;;;;;;;;;;14.20;99.90;;;;;;4975901;28;1379;-47
2021/10/23 09:13:55;;;;;;;;;;;14.20;99.90;;;;;;4977611;28;1243;-47
2021/10/23 09:16:21;;;;;;;;;;;14.30;99.90;;;;;;5011552;28;1085;-47
2021/10/23 09:18:49;;;;;;;;;;;14.30;99.90;;;;;;4996506;28;891;-47
2021/10/23 09:21:22;;;;;;;;;;;14.40;99.90;;;;;;4996471;28;770;-47
2021/10/23 09:23:48;;;;;;;;;;;14.50;99.90;;;;;;4995256;28;880;-47
2021/10/23 09:26:34;;;;;;;;;;;14.60;99.90;;;;;;4996429;28;935;-47
2021/10/23 09:29:19;;;;;;;;;;;14.60;99.90;;;;;;4995285;28;1910;-48
2021/10/23 09:31:46;;;;;;;;;;;14.70;99.90;;;;;;4996210;28;925;-47
2021/10/23 09:34:14;;;;;;;;;;;14.60;99.90;;;;;;4996218;28;1134;-47
2021/10/23 09:36:47;;;;;;;;;;;14.60;99.90;;;;;;4996555;28;766;-47
2021/10/23 09:39:32;;;;;;;;;;;14.60;99.90;;;;;;4996179;28;1025;-47
2021/10/23 09:42:07;;;;;;;;;;;14.50;99.90;;;;;;4957691;28;913;-47
2021/10/23 09:44:36;;;;;;;;;;;14.50;99.90;;;;;;4957812;28;857;-47
2021/10/23 09:47:02;;;;;;;;;;;14.50;99.90;;;;;;4957795;28;1044;-47
2021/10/23 09:49:29;;;;;;;;;;;14.50;99.90;;;;;;4957301;28;1903;-47
2021/10/23 09:52:03;;;;;;;;;;;14.50;99.90;;;;;;4957817;28;900;-47
2021/10/23 09:54:30;;;;;;;;;;;14.50;99.90;;;;;;4960646;28;1069;-47
2021/10/23 09:56:58;;;;;;;;;;;14.40;99.90;;;;;;4961124;29;826;-54
2021/10/23 09:59:25;;;;;;;;;;;14.50;99.90;;;;;;4960790;28;1087;-47
2021/10/23 10:01:52;;;;;;;;;;;14.50;99.90;;;;;;4960751;28;763;-47
2021/10/23 10:04:18;;;;;;;;;;;14.50;99.90;;;;;;4960545;29;837;-47
2021/10/23 10:06:45;;;;;;;;;;;14.50;99.90;;;;;;4960951;28;775;-47
2021/10/23 10:09:11;;;;;;;;;;;14.50;99.90;;;;;;4960754;28;1965;-47
2021/10/23 10:11:38;;;;;;;;;;;14.50;99.90;;;;;;4978112;28;1045;-47
2021/10/23 10:14:08;;;;;;;;;;;14.60;99.90;;;;;;4981673;28;1175;-47
2021/10/23 10:16:35;;;;;;;;;;;14.60;99.90;;;;;;4999242;28;841;-47
2021/10/23 10:19:02;;;;;;;;;;;14.60;99.90;;;;;;4999767;28;1092;-48
2021/10/23 10:21:39;;;;;;;;;;;14.60;99.90;;;;;;4999359;28;894;-47
2021/10/23 10:24:24;;;;;;;;;;;14.60;99.90;;;;;;4999654;28;964;-47
2021/10/23 10:26:56;;;;;;;;;;;14.60;99.90;;;;;;4999359;28;813;-47
2021/10/23 10:29:26;;;;;;;;;;;14.60;99.90;;;;;;4997616;28;1906;-47
2021/10/23 10:31:56;;;;;;;;;;;14.60;99.90;;;;;;4997909;28;912;-47
2021/10/23 10:42:53;;;;;;;;;;;14.80;99.90;;;;;;4978172;28;917;-47
2021/10/23 10:45:24;;;;;;;;;;;14.80;99.90;;;;;;4977117;28;1029;-47
2021/10/23 10:48:09;;;;;;;;;;;14.80;99.90;;;;;;4978365;28;1974;-48
2021/10/23 10:50:37;;;;;;;;;;;14.80;99.90;;;;;;4977636;28;955;-47
2021/10/23 10:53:21;;;;;;;;;;;14.80;99.90;;;;;;4977437;28;819;-47
2021/10/23 10:55:49;;;;;;;;;;;14.90;99.90;;;;;;4977757;28;962;-48
2021/10/23 10:58:15;;;;;;;;;;;14.90;99.90;;;;;;4977581;28;825;-47
2021/10/23 11:01:03;;;;;;;;;;;15.00;99.90;;;;;;4977834;28;895;-48
2021/10/23 11:03:47;;;;;;;;;;;15.00;99.90;;;;;;4991566;28;1916;-48
2021/10/23 11:06:35;;;;;;;;;;;15.00;99.90;;;;;;4981914;28;851;-48
2021/10/23 11:17:06;;;;;;;;;;;15.10;99.90;;;;;;4998711;28;885;-47
2021/10/23 11:19:31;;;;;;;;;;;15.10;99.90;;;;;;4996973;28;1051;-47
2021/10/23 11:22:02;;;;;;;;;;;15.20;99.90;;;;;;4997666;28;902;-48
2021/10/23 11:24:29;;;;;;;;;;;15.20;99.90;;;;;;4998255;28;855;-47
2021/10/23 11:26:55;;;;;;;;;;;15.20;99.90;;;;;;4998721;28;1496;-48
2021/10/23 11:29:28;;;;;;;;;;;15.20;99.90;;;;;;4997908;28;1902;-48
2021/10/23 11:31:54;;;;;;;;;;;15.20;99.90;;;;;;4998315;28;843;-47
2021/10/23 11:34:31;;;;;;;;;;;15.30;99.90;;;;;;4997590;28;995;-47
2021/10/23 11:37:01;;;;;;;;;;;15.30;99.90;;;;;;4998037;28;812;-47
2021/10/23 11:39:30;;;;;;;;;;;15.20;99.90;;;;;;4997266;28;841;-47
2021/10/23 11:42:15;;;;;;;;;;;15.20;99.90;;;;;;4978387;28;869;-47
2021/10/23 11:44:42;;;;;;;;;;;15.20;99.90;;;;;;4976913;28;1049;-47
2021/10/23 11:47:14;;;;;;;;;;;15.20;99.90;;;;;;4978286;28;1172;-47
2021/10/23 11:49:41;;;;;;;;;;;15.20;99.90;;;;;;4978001;28;1949;-47
2021/10/23 11:52:07;;;;;;;;;;;15.20;99.90;;;;;;4978858;28;1061;-47
2021/10/23 11:54:41;;;;;;;;;;;15.10;99.90;;;;;;4978308;28;774;-47
2021/10/23 11:57:07;;;;;;;;;;;15.10;99.90;;;;;;4976688;28;1220;-49
2021/10/23 11:59:33;;;;;;;;;;;15.10;99.90;;;;;;4977754;28;842;-47
2021/10/23 12:02:11;;;;;;;;;;;15.10;99.90;;;;;;4977805;28;802;-47
2021/10/23 12:04:38;;;;;;;;;;;15.10;99.90;;;;;;4977783;28;850;-47
2021/10/23 12:07:04;;;;;;;;;;;15.10;99.90;;;;;;4976990;28;1142;-47
2021/10/23 12:09:30;;;;;;;;;;;15.10;99.90;;;;;;4977865;28;1960;-47
2021/10/23 12:12:13;;;;;;;;;;;15.10;99.90;;;;;;4977280;28;1081;-47
2021/10/23 12:14:39;;;;;;;;;;;15.10;99.90;;;;;;4983069;28;1129;-47
2021/10/23 12:17:05;;;;;;;;;;;15.10;99.90;;;;;;4996426;28;896;-47
2021/10/23 12:19:36;;;;;;;;;;;15.10;99.90;;;;;;4996052;28;822;-47
2021/10/23 12:22:05;;;;;;;;;;;15.10;99.90;;;;;;4997013;28;888;-47
2021/10/23 12:24:32;;;;;;;;;;;15.10;99.90;;;;;;4993613;28;1319;-47
2021/10/23 12:27:17;;;;;;;;;;;15.10;99.90;;;;;;4960026;28;1507;-47
2021/10/23 12:29:49;;;;;;;;;;;15.10;99.90;;;;;;4958050;28;1970;-47
2021/10/23 12:32:17;;;;;;;;;;;15.10;99.90;;;;;;4958626;28;894;-47
2021/10/23 12:35:02;;;;;;;;;;;15.10;99.90;;;;;;4958304;28;870;-47
2021/10/23 12:37:28;;;;;;;;;;;15.00;99.90;;;;;;4958257;28;1114;-47
2021/10/23 12:40:05;;;;;;;;;;;15.00;99.90;;;;;;4961894;28;802;-47
2021/10/23 12:42:32;;;;;;;;;;;15.00;99.90;;;;;;4977363;28;981;-47
2021/10/23 12:44:58;;;;;;;;;;;15.00;99.90;;;;;;4976469;28;1371;-47
2021/10/23 12:47:25;;;;;;;;;;;14.90;99.90;;;;;;4977761;28;1186;-47
2021/10/23 12:49:52;;;;;;;;;;;14.90;99.90;;;;;;4977375;28;1910;-47
2021/10/23 12:52:21;;;;;;;;;;;14.90;99.90;;;;;;4988618;28;1153;-47
2021/10/23 12:54:47;;;;;;;;;;;14.80;99.90;;;;;;4982690;28;1046;-46
2021/10/23 12:57:12;;;;;;;;;;;14.80;99.90;;;;;;4974768;28;1273;-46
2021/10/23 12:59:39;;;;;;;;;;;14.60;99.90;;;;;;4974928;28;1186;-46
2021/10/23 13:02:08;;;;;;;;;;;14.40;99.90;;;;;;4974447;28;1140;-47
2021/10/23 13:04:34;;;;;;;;;;;14.30;99.90;;;;;;4975267;28;1157;-47
2021/10/23 13:06:59;;;;;;;;;;;14.20;99.90;;;;;;4978923;28;1415;-47
2021/10/23 13:09:27;;;;;;;;;;;14.10;99.90;;;;;;4975768;28;1911;-47
2021/10/23 13:11:54;;;;;;;;;;;14.10;99.90;;;;;;4984083;28;1080;-48
2021/10/23 13:14:20;;;;;;;;;;;14.10;99.90;;;;;;4994771;28;802;-47
2021/10/23 13:16:47;;;;;;;;;;;14.20;99.90;;;;;;4994925;28;833;-53
2021/10/23 13:19:13;;;;;;;;;;;14.10;99.90;;;;;;4994815;28;896;-48
2021/10/23 13:21:39;;;;;;;;;;;14.20;99.90;;;;;;4958753;28;2863;-50
2021/10/23 13:24:05;;;;;;;;;;;14.20;99.90;;;;;;4967969;28;1190;-44
2021/10/23 13:26:31;;;;;;;;;;;;;;;;;;4975469;28;1135;-45
2021/10/23 13:28:59;;;;;;;;;;;14.40;99.90;;;;;;4978118;28;1910;-49
2021/10/23 13:31:26;;;;;;;;;;;14.50;99.90;;;;;;4968238;28;1286;-49
2021/10/23 13:33:53;;;;;;;;;;;14.60;99.90;;;;;;4976616;28;1317;-58
2021/10/23 13:36:21;;;;;;;;;;;14.60;99.90;;;;;;4963709;28;1460;-50
2021/10/23 13:38:49;;;;;;;;;;;14.80;99.90;;;;;;4967943;28;1114;-51
2021/10/23 13:41:15;;;;;;;;;;;14.90;99.90;;;;;;4968089;28;1253;-50
2021/10/23 13:43:41;;;;;;;;;;;14.80;99.90;;;;;;4972941;28;1109;-48
2021/10/23 13:46:07;;;;;;;;;;;14.80;99.90;;;;;;4960619;28;818;-48
2021/10/23 13:48:33;;;;;;;;;;;14.80;99.90;;;;;;4978421;28;1983;-48
2021/10/23 13:51:00;;;;;;;;;;;14.80;99.90;;;;;;4980209;28;799;-48
2021/10/23 13:53:27;;;;;;;;;;;14.80;99.90;;;;;;4980018;28;755;-50
2021/10/23 13:55:54;;;;;;;;;;;14.80;99.90;;;;;;4980600;28;930;-50
2021/10/23 13:58:22;;;;;;;;;;;14.80;99.90;;;;;;4970804;28;1222;-48
2021/10/23 14:00:49;;;;;;;;;;;14.80;99.90;;;;;;4973388;28;1166;-49
2021/10/23 14:03:19;;;;;;;;;;;14.90;99.90;;;;;;4985076;28;1439;-49
2021/10/23 14:05:47;;;;;;;;;;;15.00;99.90;;;;;;4970170;28;1642;-49
2021/10/23 14:08:13;;;;;;;;;;;15.00;99.90;;;;;;4968746;28;1914;-49
2021/10/23 14:10:39;;;;;;;;;;;15.00;99.90;;;;;;4977037;28;1325;-49
2021/10/23 14:13:05;;;;;;;;;;;15.10;99.90;;;;;;4972226;28;1692;-51
2021/10/23 14:15:32;;;;;;;;;;;15.20;99.90;;;;;;4962753;28;1476;-51
2021/10/23 14:18:01;;;;;;;;;;;15.20;99.90;;;;;;4970432;28;1309;-51
2021/10/23 14:20:29;;;;;;;;;;;15.30;99.90;;;;;;4964539;28;1342;-51
2021/10/23 14:22:56;;;;;;;;;;;15.30;99.90;;;;;;4973265;28;1076;-51
2021/10/23 14:25:28;;;;;;;;;;;15.30;99.90;;;;;;4974731;28;997;-50
2021/10/23 14:27:57;;;;;;;;;;;15.30;99.90;;;;;;4975286;28;1914;-51
2021/10/23 14:30:25;;;;;;;;;;;15.30;99.90;;;;;;4977732;28;994;-50
2021/10/23 14:32:52;;;;;;;;;;;15.40;99.90;;;;;;4972609;28;1492;-49
2021/10/23 14:35:18;;;;;;;;;;;15.50;99.90;;;;;;4965728;28;1400;-49
2021/10/23 14:37:45;;;;;;;;;;;15.40;99.90;;;;;;4969692;28;1278;-49
2021/10/23 14:40:12;;;;;;;;;;;15.40;99.90;;;;;;4965839;28;1243;-49
2021/10/23 14:42:38;;;;;;;;;;;15.50;99.90;;;;;;4970335;28;1421;-51
2021/10/23 14:45:05;;;;;;;;;;;15.50;99.90;;;;;;4968871;28;1306;-50
2021/10/23 14:47:32;;;;;;;;;;;15.50;99.90;;;;;;4968348;28;1377;-50
2021/10/23 14:50:00;;;;;;;;;;;15.50;99.90;;;;;;4968349;28;1883;-49
2021/10/23 14:52:27;;;;;;;;;;;15.50;99.90;;;;;;4968967;28;1306;-49
2021/10/23 14:54:53;;;;;;;;;;;15.60;99.90;;;;;;4969389;28;1318;-49
2021/10/23 14:57:20;;;;;;;;;;;15.60;99.90;;;;;;4967501;28;1325;-49